createdAt,value
2018-07-12T00:01:25.987Z,14.19
2018-07-12T00:03:53.361Z,14.14
2018-07-12T00:06:20.687Z,14.10
2018-07-12T00:08:48.032Z,14.12
2018-07-12T00:11:15.378Z,14.12
2018-07-12T00:13:42.710Z,14.11
2018-07-12T00:16:10.022Z,14.11
2018-07-12T00:18:37.353Z,14.09
2018-07-12T00:21:04.700Z,14.01
2018-07-12T00:23:32.040Z,13.97
2018-07-12T00:25:59.378Z,13.84
2018-07-12T00:28:26.732Z,13.77
2018-07-12T00:30:54.121Z,13.70
2018-07-12T00:33:21.457Z,13.63
2018-07-12T00:35:48.866Z,13.58
2018-07-12T00:38:16.208Z,13.54
2018-07-12T00:40:43.568Z,13.49
2018-07-12T00:43:10.918Z,13.47
2018-07-12T00:45:38.376Z,13.44
2018-07-12T00:48:05.816Z,13.38
2018-07-12T00:50:33.126Z,13.35
2018-07-12T00:53:00.522Z,13.31
2018-07-12T00:55:27.967Z,13.24
2018-07-12T00:57:55.297Z,13.23
2018-07-12T01:00:22.719Z,13.21
2018-07-12T01:02:50.118Z,13.20
2018-07-12T01:05:17.545Z,13.23
2018-07-12T01:07:44.953Z,13.23
2018-07-12T01:10:12.349Z,13.21
2018-07-12T01:12:39.750Z,13.19
2018-07-12T01:15:07.082Z,13.20
2018-07-12T01:17:34.420Z,13.27
2018-07-12T01:20:01.798Z,13.30
2018-07-12T01:22:29.116Z,13.27
2018-07-12T01:24:56.456Z,13.31
2018-07-12T01:27:23.831Z,13.29
2018-07-12T01:29:51.195Z,13.33
2018-07-12T01:32:18.637Z,13.30
2018-07-12T01:34:45.957Z,13.34
2018-07-12T01:37:13.362Z,13.35
2018-07-12T01:39:40.672Z,13.37
2018-07-12T01:42:07.993Z,13.40
2018-07-12T01:44:35.326Z,13.42
2018-07-12T01:47:02.676Z,13.46
2018-07-12T01:49:30.023Z,13.47
2018-07-12T01:51:57.380Z,13.49
2018-07-12T01:54:24.707Z,13.50
2018-07-12T01:56:52.105Z,13.47
2018-07-12T01:59:20.667Z,13.44
2018-07-12T02:01:48.174Z,13.47
2018-07-12T02:04:15.691Z,13.49
2018-07-12T02:06:43.039Z,13.52
2018-07-12T02:09:10.477Z,13.51
2018-07-12T02:11:37.843Z,13.50
2018-07-12T02:14:05.245Z,13.49
2018-07-12T02:16:32.646Z,13.48
2018-07-12T02:19:00.075Z,13.51
2018-07-12T02:21:27.415Z,13.54
2018-07-12T02:23:54.737Z,13.52
2018-07-12T02:26:22.599Z,13.51
2018-07-12T02:28:50.170Z,13.57
2018-07-12T02:31:17.481Z,13.57
2018-07-12T02:33:44.847Z,13.55
2018-07-12T02:36:12.203Z,13.58
2018-07-12T02:38:39.575Z,13.57
2018-07-12T02:41:06.917Z,13.54
2018-07-12T02:43:34.393Z,13.56
2018-07-12T02:46:01.773Z,13.58
2018-07-12T02:48:29.178Z,13.62
2018-07-12T02:50:57.409Z,13.63
2018-07-12T02:53:24.908Z,13.65
2018-07-12T02:55:52.386Z,13.64
2018-07-12T02:58:19.807Z,13.66
2018-07-12T03:00:47.183Z,13.67
2018-07-12T03:03:14.582Z,13.67
2018-07-12T03:05:42.510Z,13.70
2018-07-12T03:08:09.869Z,13.70
2018-07-12T03:10:37.302Z,13.73
2018-07-12T03:13:04.664Z,13.76
2018-07-12T03:15:32.068Z,13.78
2018-07-12T03:17:59.542Z,13.86
2018-07-12T03:20:27.095Z,13.91
2018-07-12T03:22:54.641Z,13.98
2018-07-12T03:25:21.983Z,14.04
2018-07-12T03:27:49.398Z,14.08
2018-07-12T03:30:17.616Z,14.12
2018-07-12T03:32:45.127Z,14.13
2018-07-12T03:35:12.530Z,14.15
2018-07-12T03:37:39.998Z,14.15
2018-07-12T03:40:07.420Z,14.23
2018-07-12T03:42:37.066Z,14.25
2018-07-12T03:45:10.714Z,14.28
2018-07-12T03:47:38.956Z,14.31
2018-07-12T03:50:06.392Z,14.29
2018-07-12T03:52:33.817Z,14.31
2018-07-12T03:55:01.387Z,14.32
2018-07-12T03:57:28.897Z,14.32
2018-07-12T03:59:56.377Z,14.25
2018-07-12T04:02:23.747Z,14.21
2018-07-12T04:04:51.345Z,14.17
2018-07-12T04:07:18.689Z,14.20
2018-07-12T04:09:46.174Z,14.14
2018-07-12T04:12:13.584Z,14.04
2018-07-12T04:14:40.962Z,14.02
2018-07-12T04:17:08.428Z,13.98
2018-07-12T04:19:35.826Z,14.05
2018-07-12T04:22:03.241Z,14.04
2018-07-12T04:24:30.720Z,14.12
2018-07-12T04:26:58.136Z,14.17
2018-07-12T04:29:25.567Z,14.23
2018-07-12T04:31:52.917Z,14.27
2018-07-12T04:34:21.123Z,14.32
2018-07-12T04:36:48.585Z,14.39
2018-07-12T04:39:15.982Z,14.45
2018-07-12T04:41:43.342Z,14.51
2018-07-12T04:44:10.800Z,14.49
2018-07-12T04:46:38.241Z,14.51
2018-07-12T04:49:05.589Z,14.50
2018-07-12T04:51:33.003Z,14.42
2018-07-12T04:54:00.366Z,14.38
2018-07-12T04:56:27.680Z,14.34
2018-07-12T04:58:55.026Z,14.33
2018-07-12T05:01:22.474Z,14.32
2018-07-12T05:03:49.887Z,14.37
2018-07-12T05:06:17.266Z,14.30
2018-07-12T05:08:44.645Z,14.24
2018-07-12T05:11:12.098Z,14.25
2018-07-12T05:13:39.399Z,14.32
2018-07-12T05:16:06.771Z,14.36
2018-07-12T05:18:34.137Z,14.36
2018-07-12T05:21:01.503Z,14.41
2018-07-12T05:23:28.979Z,14.50
2018-07-12T05:25:56.636Z,14.58
2018-07-12T05:28:24.082Z,14.68
2018-07-12T05:30:51.560Z,14.74
2018-07-12T05:33:18.845Z,14.75
2018-07-12T05:35:47.591Z,14.78
2018-07-12T05:38:17.110Z,14.86
2018-07-12T05:40:45.728Z,14.91
2018-07-12T05:43:14.338Z,14.91
2018-07-12T05:45:42.894Z,14.86
2018-07-12T05:48:11.509Z,14.85
2018-07-12T05:50:44.251Z,14.78
2018-07-12T05:53:12.850Z,14.83
2018-07-12T05:55:41.525Z,14.83
2018-07-12T05:58:10.172Z,14.79
2018-07-12T06:00:38.797Z,14.89
2018-07-12T06:03:07.446Z,14.93
2018-07-12T06:05:36.073Z,14.99
2018-07-12T06:08:04.731Z,15.12
2018-07-12T06:10:33.402Z,15.14
2018-07-12T06:13:01.944Z,15.29
2018-07-12T06:15:30.508Z,15.45
2018-07-12T06:17:59.043Z,15.58
2018-07-12T06:20:27.587Z,15.54
2018-07-12T06:22:56.139Z,15.52
2018-07-12T06:25:24.661Z,15.58
2018-07-12T06:27:53.193Z,15.71
2018-07-12T06:30:21.730Z,15.77
2018-07-12T06:32:50.261Z,15.96
2018-07-12T06:35:18.828Z,16.07
2018-07-12T06:37:47.334Z,16.22
2018-07-12T06:40:15.864Z,16.29
2018-07-12T06:42:44.423Z,16.37
2018-07-12T06:45:12.941Z,16.58
2018-07-12T06:47:41.515Z,16.74
2018-07-12T06:50:10.035Z,16.68
2018-07-12T06:52:38.572Z,16.73
2018-07-12T06:55:07.116Z,16.85
2018-07-12T06:57:35.642Z,16.89
2018-07-12T07:00:04.265Z,17.00
2018-07-12T07:02:32.794Z,17.00
2018-07-12T07:05:01.322Z,16.97
2018-07-12T07:07:29.853Z,17.03
2018-07-12T07:09:58.392Z,16.89
2018-07-12T07:12:26.974Z,16.67
2018-07-12T07:14:55.492Z,17.02
2018-07-12T07:17:24.019Z,16.94
2018-07-12T07:19:52.563Z,16.92
2018-07-12T07:22:21.082Z,16.96
2018-07-12T07:24:49.697Z,17.09
2018-07-12T07:27:18.238Z,17.11
2018-07-12T07:29:46.744Z,17.06
2018-07-12T07:32:15.280Z,17.17
2018-07-12T07:34:43.803Z,17.27
2018-07-12T07:37:12.372Z,17.31
2018-07-12T07:39:40.918Z,17.44
2018-07-12T07:42:09.442Z,17.58
2018-07-12T07:44:38.009Z,17.66
2018-07-12T07:47:06.530Z,17.64
2018-07-12T07:49:35.117Z,17.63
2018-07-12T07:52:03.625Z,17.74
2018-07-12T07:54:32.139Z,17.92
2018-07-12T07:57:00.713Z,18.04
2018-07-12T07:59:29.283Z,18.28
2018-07-12T08:01:57.855Z,18.84
2018-07-12T08:04:26.372Z,19.26
2018-07-12T08:06:54.907Z,20.24
2018-07-12T08:09:23.475Z,21.17
2018-07-12T08:11:52.051Z,22.24
2018-07-12T08:14:20.685Z,21.67
2018-07-12T08:16:49.196Z,21.43
2018-07-12T08:19:17.726Z,21.35
2018-07-12T08:21:46.293Z,21.08
2018-07-12T08:24:14.829Z,21.18
2018-07-12T08:26:43.428Z,21.09
2018-07-12T08:29:11.987Z,21.18
2018-07-12T08:31:40.566Z,20.59
2018-07-12T08:34:09.122Z,20.86
2018-07-12T08:36:37.707Z,21.23
2018-07-12T08:39:06.774Z,21.85
2018-07-12T08:41:35.313Z,22.72
2018-07-12T08:44:03.850Z,22.88
2018-07-12T08:46:32.402Z,22.66
2018-07-12T08:49:00.889Z,26.40
2018-07-12T08:51:29.454Z,27.53
2018-07-12T08:53:57.981Z,28.76
2018-07-12T08:56:26.679Z,29.85
2018-07-12T08:58:55.441Z,29.78
2018-07-12T09:01:23.947Z,27.76
2018-07-12T09:03:52.472Z,27.40
2018-07-12T09:06:21.266Z,26.03
2018-07-12T09:08:49.785Z,24.45
2018-07-12T09:11:18.337Z,23.72
2018-07-12T09:13:47.620Z,23.43
2018-07-12T09:16:16.347Z,23.16
2018-07-12T09:18:44.885Z,23.04
2018-07-12T09:21:13.454Z,23.35
2018-07-12T09:23:42.007Z,23.41
2018-07-12T09:26:10.596Z,23.35
2018-07-12T09:28:39.191Z,23.61
2018-07-12T09:31:07.752Z,24.12
2018-07-12T09:33:36.365Z,24.52
2018-07-12T09:36:05.015Z,26.23
2018-07-12T09:38:51.474Z,27.73
2018-07-12T09:41:21.497Z,27.06
2018-07-12T09:43:50.728Z,27.49
2018-07-12T09:46:19.459Z,28.83
2018-07-12T09:48:49.480Z,30.30
2018-07-12T09:51:18.153Z,30.01
2018-07-12T09:53:47.702Z,32.01
2018-07-12T09:56:16.653Z,31.11
2018-07-12T09:58:45.269Z,30.98
2018-07-12T10:01:19.164Z,30.61
2018-07-12T10:03:50.390Z,32.86
2018-07-12T10:06:24.319Z,28.31
2018-07-12T10:08:58.175Z,28.29
2018-07-12T10:11:32.349Z,28.58
2018-07-12T10:16:11.011Z,31.32
2018-07-12T10:18:39.683Z,27.37
2018-07-12T10:21:08.540Z,26.20
2018-07-12T10:23:37.461Z,27.42
2018-07-12T10:26:06.783Z,31.62
2018-07-12T10:28:35.546Z,29.28
2018-07-12T10:31:04.234Z,27.76
2018-07-12T10:33:32.872Z,27.66
2018-07-12T10:36:01.382Z,26.88
2018-07-12T10:38:30.001Z,30.14
2018-07-12T10:40:58.593Z,29.51
2018-07-12T10:43:27.158Z,30.72
2018-07-12T10:45:55.752Z,28.25
2018-07-12T10:48:24.321Z,32.02
2018-07-12T10:50:52.929Z,32.98
2018-07-12T10:53:21.462Z,31.08
2018-07-12T10:55:50.037Z,33.27
2018-07-12T10:58:18.566Z,34.10
2018-07-12T11:00:47.146Z,34.89
2018-07-12T11:03:15.752Z,33.47
2018-07-12T11:05:44.283Z,29.24
2018-07-12T11:08:12.893Z,27.42
2018-07-12T11:10:41.454Z,26.52
2018-07-12T11:13:15.286Z,26.13
2018-07-12T11:15:44.585Z,26.98
2018-07-12T11:18:13.107Z,27.03
2018-07-12T11:20:41.713Z,27.31
2018-07-12T11:23:10.386Z,25.71
2018-07-12T11:25:38.945Z,25.01
2018-07-12T11:28:07.567Z,24.71
2018-07-12T11:30:36.077Z,27.05
2018-07-12T11:33:48.541Z,26.66
2018-07-12T11:36:17.123Z,26.31
2018-07-12T11:38:46.132Z,26.92
2018-07-12T11:41:15.110Z,27.38
2018-07-12T11:43:43.722Z,28.42
2018-07-12T11:46:13.680Z,27.95
2018-07-12T11:48:43.094Z,28.71
2018-07-12T11:51:11.839Z,27.96
2018-07-12T11:53:40.469Z,26.10
2018-07-12T11:56:08.994Z,26.33
2018-07-12T11:58:37.569Z,26.48
2018-07-12T12:01:06.168Z,26.63
2018-07-12T12:03:34.714Z,26.74
2018-07-12T12:06:03.299Z,26.64
2018-07-12T12:08:32.002Z,26.04
2018-07-12T12:11:00.581Z,26.29
2018-07-12T12:13:29.218Z,26.45
2018-07-12T12:15:57.805Z,26.02
2018-07-12T12:18:26.395Z,25.69
2018-07-12T12:20:54.986Z,25.80
2018-07-12T12:23:23.606Z,26.17
2018-07-12T12:25:52.219Z,26.63
2018-07-12T12:28:20.773Z,26.81
2018-07-12T12:30:49.342Z,26.88
2018-07-12T12:33:17.934Z,26.93
2018-07-12T12:35:46.544Z,26.71
2018-07-12T12:38:15.078Z,26.67
2018-07-12T12:40:43.646Z,26.40
2018-07-12T12:43:12.225Z,26.30
2018-07-12T12:45:40.817Z,26.23
2018-07-12T12:48:09.362Z,26.42
2018-07-12T12:50:37.901Z,26.64
2018-07-12T12:53:06.431Z,26.35
2018-07-12T12:55:35.053Z,25.79
2018-07-12T12:58:03.595Z,25.50
2018-07-12T13:00:32.230Z,25.56
2018-07-12T13:03:00.781Z,25.69
2018-07-12T13:05:29.343Z,25.78
2018-07-12T13:07:57.905Z,25.91
2018-07-12T13:10:26.465Z,26.05
2018-07-12T13:12:55.079Z,26.04
2018-07-12T13:15:23.634Z,26.28
2018-07-12T13:17:52.240Z,26.64
2018-07-12T13:20:20.829Z,26.94
2018-07-12T13:22:49.418Z,27.06
2018-07-12T13:25:18.034Z,27.34
2018-07-12T13:27:46.606Z,27.24
2018-07-12T13:30:15.234Z,26.79
2018-07-12T13:32:43.842Z,26.35
2018-07-12T13:35:12.425Z,26.72
2018-07-12T13:37:41.037Z,27.13
2018-07-12T13:40:09.639Z,26.94
2018-07-12T13:42:38.297Z,26.74
2018-07-12T13:45:06.887Z,26.00
2018-07-12T13:47:35.561Z,25.89
2018-07-12T13:50:04.506Z,26.20
2018-07-12T13:52:33.054Z,26.31
2018-07-12T13:55:01.615Z,26.72
2018-07-12T13:57:30.147Z,26.50
2018-07-12T13:59:58.817Z,26.47
2018-07-12T14:02:27.379Z,26.00
2018-07-12T14:04:56.028Z,25.70
2018-07-12T14:07:24.586Z,25.94
2018-07-12T14:09:53.216Z,25.93
2018-07-12T14:12:21.783Z,25.80
2018-07-12T14:14:50.342Z,25.80
2018-07-12T14:17:18.942Z,25.73
2018-07-12T14:19:47.535Z,25.54
2018-07-12T14:22:16.181Z,25.64
2018-07-12T14:24:44.744Z,25.54
2018-07-12T14:27:13.425Z,25.34
2018-07-12T14:29:42.002Z,25.33
2018-07-12T14:32:10.513Z,25.57
2018-07-12T14:34:39.206Z,25.55
2018-07-12T14:37:07.789Z,25.77
2018-07-12T14:39:36.485Z,25.90
2018-07-12T14:42:05.093Z,26.17
2018-07-12T14:44:34.180Z,26.28
2018-07-12T14:47:02.884Z,26.22
2018-07-12T14:49:31.390Z,26.12
2018-07-12T14:51:59.953Z,26.06
2018-07-12T14:54:28.517Z,26.03
2018-07-12T14:56:57.113Z,25.87
2018-07-12T14:59:25.638Z,25.89
2018-07-12T15:01:54.239Z,25.90
2018-07-12T15:04:22.868Z,25.93
2018-07-12T15:06:51.453Z,25.91
2018-07-12T15:09:20.227Z,25.83
2018-07-12T15:11:48.609Z,25.83
2018-07-12T15:14:17.193Z,25.86
2018-07-12T15:16:45.812Z,25.53
2018-07-12T15:19:14.421Z,25.43
2018-07-12T15:21:42.955Z,25.52
2018-07-12T15:24:11.513Z,25.62
2018-07-12T15:26:40.134Z,25.66
2018-07-12T15:29:08.855Z,25.79
2018-07-12T15:31:37.456Z,25.85
2018-07-12T15:34:06.029Z,25.99
2018-07-12T15:36:34.674Z,25.72
2018-07-12T15:39:03.334Z,25.69
2018-07-12T15:41:31.942Z,25.62
2018-07-12T15:44:00.597Z,25.18
2018-07-12T15:46:29.180Z,25.39
2018-07-12T15:48:57.747Z,25.27
2018-07-12T15:51:26.322Z,25.22
2018-07-12T15:53:54.966Z,25.31
2018-07-12T15:56:23.594Z,25.41
2018-07-12T15:58:52.136Z,25.50
2018-07-12T16:01:20.700Z,25.65
2018-07-12T16:03:49.261Z,25.77
2018-07-12T16:06:17.895Z,25.76
2018-07-12T16:08:46.503Z,25.93
2018-07-12T16:11:15.038Z,25.92
2018-07-12T16:13:43.586Z,25.86
2018-07-12T16:16:12.147Z,25.89
2018-07-12T16:18:40.683Z,25.92
2018-07-12T16:21:09.223Z,25.75
2018-07-12T16:23:37.793Z,25.66
2018-07-12T16:26:06.342Z,25.60
2018-07-12T16:28:34.929Z,25.54
2018-07-12T16:31:03.484Z,25.49
2018-07-12T16:33:32.129Z,25.39
2018-07-12T16:36:00.694Z,25.29
2018-07-12T16:38:29.313Z,25.18
2018-07-12T16:40:57.821Z,25.03
2018-07-12T16:43:26.421Z,24.98
2018-07-12T16:45:54.928Z,24.98
2018-07-12T16:48:26.429Z,25.02
2018-07-12T16:50:55.571Z,25.01
2018-07-12T16:53:24.103Z,24.99
2018-07-12T16:55:52.640Z,24.82
2018-07-12T16:58:21.194Z,24.76
2018-07-12T17:00:49.757Z,24.70
2018-07-12T17:03:18.377Z,24.60
2018-07-12T17:05:46.972Z,24.28
2018-07-12T17:08:15.547Z,24.26
2018-07-12T17:10:44.072Z,24.30
2018-07-12T17:13:12.615Z,24.27
2018-07-12T17:15:41.677Z,24.27
2018-07-12T17:18:10.521Z,24.21
2018-07-12T17:20:39.389Z,24.21
2018-07-12T17:23:08.350Z,24.23
2018-07-12T17:25:37.008Z,24.19
2018-07-12T17:28:05.793Z,24.21
2018-07-12T17:30:34.585Z,24.13
2018-07-12T17:33:03.402Z,24.05
2018-07-12T17:35:32.112Z,24.02
2018-07-12T17:38:00.911Z,23.99
2018-07-12T17:40:29.868Z,23.90
2018-07-12T17:42:58.686Z,23.78
2018-07-12T17:45:27.495Z,23.70
2018-07-12T17:47:56.205Z,23.61
2018-07-12T17:50:24.887Z,23.58
2018-07-12T17:52:53.669Z,23.53
2018-07-12T17:55:22.234Z,23.44
2018-07-12T17:57:50.889Z,23.32
2018-07-12T18:00:19.617Z,23.27
2018-07-12T18:02:48.650Z,23.21
2018-07-12T18:05:17.519Z,23.14
2018-07-12T18:07:46.345Z,23.03
2018-07-12T18:10:15.185Z,22.96
2018-07-12T18:12:44.063Z,22.91
2018-07-12T18:15:12.691Z,22.84
2018-07-12T18:17:41.442Z,22.79
2018-07-12T18:20:10.305Z,22.69
2018-07-12T18:22:39.047Z,22.63
2018-07-12T18:25:08.044Z,22.54
2018-07-12T18:27:37.198Z,22.49
2018-07-12T18:30:06.913Z,22.44
2018-07-12T18:32:35.718Z,22.33
2018-07-12T18:35:04.668Z,22.26
2018-07-12T18:37:33.349Z,22.17
2018-07-12T18:40:02.069Z,22.04
2018-07-12T18:42:30.753Z,21.94
2018-07-12T18:44:59.361Z,21.85
2018-07-12T18:47:28.353Z,21.77
2018-07-12T18:49:57.065Z,21.65
2018-07-12T18:52:25.745Z,21.58
2018-07-12T18:54:54.597Z,21.50
2018-07-12T18:57:23.302Z,21.36
2018-07-12T18:59:52.234Z,21.24
2018-07-12T19:02:21.160Z,21.11
2018-07-12T19:04:49.949Z,20.95
2018-07-12T19:07:18.660Z,20.81
2018-07-12T19:09:47.386Z,20.66
2018-07-12T19:12:16.476Z,20.56
2018-07-12T19:14:45.182Z,20.44
2018-07-12T19:17:13.916Z,20.29
2018-07-12T19:19:42.767Z,20.19
2018-07-12T19:22:11.623Z,20.11
2018-07-12T19:24:40.665Z,20.03
2018-07-12T19:27:09.736Z,19.99
2018-07-12T19:29:38.637Z,19.98
2018-07-12T19:32:07.379Z,19.98
2018-07-12T19:34:36.073Z,19.93
2018-07-12T19:37:04.760Z,19.81
2018-07-12T19:39:33.528Z,19.69
2018-07-12T19:42:02.193Z,19.58
2018-07-12T19:44:30.990Z,19.46
2018-07-12T19:46:59.773Z,19.39
2018-07-12T19:49:28.594Z,19.28
2018-07-12T19:51:57.369Z,19.17
2018-07-12T19:54:27.534Z,19.09
2018-07-12T19:56:57.108Z,18.98
2018-07-12T19:59:25.891Z,18.78
2018-07-12T20:01:54.706Z,18.64
2018-07-12T20:04:24.372Z,18.52
2018-07-12T20:06:53.117Z,18.46
2018-07-12T20:09:21.996Z,18.36
2018-07-12T20:11:50.714Z,18.27
2018-07-12T20:14:19.354Z,18.20
2018-07-12T20:16:48.088Z,18.17
2018-07-12T20:19:23.368Z,18.06
2018-07-12T20:21:52.059Z,17.98
2018-07-12T20:24:20.918Z,17.90
2018-07-12T20:26:49.851Z,17.85
2018-07-12T20:29:18.566Z,17.80
2018-07-12T20:31:47.342Z,17.72
2018-07-12T20:34:16.016Z,17.68
2018-07-12T20:36:44.706Z,17.66
2018-07-12T20:39:13.610Z,17.59
2018-07-12T20:41:42.401Z,17.57
2018-07-12T20:44:11.122Z,17.51
2018-07-12T20:46:40.117Z,17.47
2018-07-12T20:49:08.760Z,17.37
2018-07-12T20:51:37.449Z,17.26
2018-07-12T20:54:06.075Z,17.21
2018-07-12T20:56:34.757Z,17.09
2018-07-12T20:59:03.421Z,16.93
2018-07-12T21:01:32.055Z,16.83
2018-07-12T21:04:00.797Z,16.78
2018-07-12T21:06:29.639Z,16.74
2018-07-12T21:08:58.340Z,16.72
2018-07-12T21:11:27.084Z,16.68
2018-07-12T21:13:55.957Z,16.67
2018-07-12T21:16:24.725Z,16.75
2018-07-12T21:18:53.436Z,16.77
2018-07-12T21:21:22.225Z,16.72
2018-07-12T21:23:50.876Z,16.62
2018-07-12T21:26:19.669Z,16.47
2018-07-12T21:28:48.403Z,16.33
2018-07-12T21:31:17.214Z,16.26
2018-07-12T21:33:46.121Z,16.20
2018-07-12T21:36:14.861Z,16.21
2018-07-12T21:38:43.799Z,16.20
2018-07-12T21:41:12.681Z,16.17
2018-07-12T21:43:41.298Z,16.08
2018-07-12T21:46:09.981Z,16.00
2018-07-12T21:48:41.706Z,15.90
2018-07-12T21:51:10.349Z,15.83
2018-07-12T21:53:39.048Z,15.75
2018-07-12T21:56:08.403Z,15.69
2018-07-12T21:58:37.069Z,15.65
2018-07-12T22:01:05.632Z,15.67
2018-07-12T22:03:34.366Z,15.77
2018-07-12T22:06:03.863Z,15.74
2018-07-12T22:08:32.531Z,15.72
2018-07-12T22:11:03.427Z,15.72
2018-07-12T22:13:33.302Z,15.72
2018-07-12T22:16:02.097Z,15.67
2018-07-12T22:18:30.813Z,15.63
2018-07-12T22:20:59.877Z,15.67
2018-07-12T22:23:28.652Z,15.63
2018-07-12T22:25:57.477Z,15.65
2018-07-12T22:28:26.299Z,15.66
2018-07-12T22:30:54.955Z,15.64
2018-07-12T22:33:23.674Z,15.53
2018-07-12T22:35:52.528Z,15.50
2018-07-12T22:38:21.267Z,15.53
2018-07-12T22:40:50.052Z,15.55
2018-07-12T22:43:18.706Z,15.55
2018-07-12T22:45:47.225Z,15.54
2018-07-12T22:48:16.101Z,15.53
2018-07-12T22:50:44.677Z,15.49
2018-07-12T22:53:13.333Z,15.44
2018-07-12T22:55:41.937Z,15.38
2018-07-12T22:58:10.713Z,15.33
2018-07-12T23:00:39.948Z,15.29
2018-07-12T23:03:08.642Z,15.23
2018-07-12T23:05:37.230Z,15.21
2018-07-12T23:08:05.897Z,15.22
2018-07-12T23:10:34.598Z,15.22
2018-07-12T23:13:03.323Z,15.21
2018-07-12T23:15:32.058Z,15.20
2018-07-12T23:18:00.899Z,15.18
2018-07-12T23:20:29.508Z,15.14
2018-07-12T23:22:58.187Z,15.09
2018-07-12T23:25:26.988Z,15.04
2018-07-12T23:27:55.768Z,15.01
2018-07-12T23:30:24.365Z,15.00
2018-07-12T23:32:53.002Z,14.97
2018-07-12T23:35:21.621Z,14.96
2018-07-12T23:37:50.268Z,14.94
2018-07-12T23:40:19.076Z,14.91
2018-07-12T23:42:47.754Z,14.87
2018-07-12T23:45:16.402Z,14.81
2018-07-12T23:47:44.946Z,14.62
2018-07-12T23:50:13.579Z,14.57
2018-07-12T23:52:42.141Z,14.51
2018-07-12T23:55:10.964Z,14.49
2018-07-12T23:57:39.825Z,14.49
